Hlavní strana
METAR-TAF:

METAR-TAF

Letiště :

Irkutsk, Rusko

zeměpisná šířka: 52-16N, zeměpisná délka: 104-19E, výška: 513 m

Aktuální stav počasí

Zpráva byla vytvořena před 21 minutami, v 22:00 UTC
Západoseverozápadní vítr 4 kt
Teplota -14°C
Vlhkost vzduchu 92%
Tlak 1022 hPa
Viditelnost 10 km a více
Oblačno až skoro zataženo ve výšce 800 ft
slabé sněžení

METAR: UIII 132200Z 29002MPS 9999 -SN BKN008 M14/M15 Q1022 R30/810350 NOSIG RMK QBB250 QFE722/0963

Čas: 06:21 (22:21 UTC)

Předpověď počasí

Zpráva byla vytvořena před 2 hodinami a 21 minutami, v 20:00 UTC
Předpověď platná od 13 v 21 UTC do 14 v 21 UTC
vítr z různých směrů 2 kt
Viditelnost: 3100 m
Oblačno až skoro zataženo ve výšce 1100 ft, Cumulonimbus.
slabé sněhové přeháňky, kouř
Dočasný
od 13 v 21 UTC do 14 v 05 UTC
Oblačno až skoro zataženo ve výšce 900 ft, Cumulonimbus.

TAF: UIII 132000Z 1321/1421 VRB01MPS 3100 -SHSN FU BKN011CB TEMPO 1321/1405 BKN009CB

Stav a předpovědi počasí z více než 4 000 letišť (zprávy METAR a TAF).

Červené a žluté tečky na mapě představují dostupné meteorologické stanice.

Když kurzor umístíte na tečku, zobrazí se název stanice.

Pak kliknutím zobrazíte stav a předpověď počasí.

Chcete-li změnit mapu, kliknutím na zelené tlačítko se znaménkem +mapu přiblížíte, kliknutím na zelené tlačítko se znaménkem – mapu oddálíte a kliknutím na zelené šipky přejdete na sousední mapy.


METAR-TAF: